Time;durP1;ratioP1;P1;durP2;ratioP2;P2;SDS_P1;SDS_P2;PMS_P1;PMS_P2;Temp;Humidity;BMP_temperature;BMP_pressure;BME280_temperature;BME280_humidity;BME280_pressure;Samples;Min_cycle;Max_cycle;Signal;HPM_P1;HPM_P2
2020/12/29 00:01:38;;;;;;;1.33;1.23;;;6.40;58.20;;;;;;5095270;28;20238;-66
2020/12/29 00:04:07;;;;;;;1.43;1.23;;;6.40;58.20;;;;;;5095432;28;20223;-65
2020/12/29 00:06:34;;;;;;;1.20;1.10;;;6.40;58.10;;;;;;5092167;28;20224;-67
2020/12/29 00:09:02;;;;;;;1.30;1.20;;;6.40;58.00;;;;;;5093008;28;20208;-66
2020/12/29 00:11:31;;;;;;;1.30;1.20;;;6.40;58.00;;;;;;5091330;28;20207;-67
2020/12/29 00:13:57;;;;;;;1.30;1.20;;;6.40;58.00;;;;;;5096397;28;20228;-66
2020/12/29 00:16:24;;;;;;;1.40;1.30;;;6.40;57.90;;;;;;5094297;28;20223;-67
2020/12/29 00:18:51;;;;;;;1.17;1.07;;;6.40;57.90;;;;;;5098307;28;20232;-67
2020/12/29 00:21:19;;;;;;;1.33;1.23;;;6.40;57.80;;;;;;5093271;28;20210;-65
2020/12/29 00:23:46;;;;;;;0.97;0.97;;;6.40;57.80;;;;;;5093644;28;20219;-67
2020/12/29 00:26:14;;;;;;;1.70;1.00;;;6.40;57.80;;;;;;5094061;28;20195;-63
2020/12/29 00:28:40;;;;;;;1.30;1.20;;;6.40;57.80;;;;;;5096162;28;20208;-66
2020/12/29 00:31:07;;;;;;;1.20;1.10;;;6.40;57.70;;;;;;5095908;28;20591;-66
2020/12/29 00:33:34;;;;;;;1.23;1.13;;;6.40;57.60;;;;;;5091045;28;20323;-67
2020/12/29 00:36:01;;;;;;;1.07;0.97;;;6.40;57.50;;;;;;5096222;28;20623;-67
2020/12/29 00:38:27;;;;;;;1.03;1.00;;;6.40;57.50;;;;;;5094526;28;20208;-68
2020/12/29 00:40:54;;;;;;;1.13;1.03;;;6.40;57.40;;;;;;5095257;28;20299;-68
2020/12/29 00:43:22;;;;;;;1.10;1.00;;;6.30;57.40;;;;;;5094950;28;20223;-66
2020/12/29 00:45:48;;;;;;;0.87;0.87;;;6.30;57.40;;;;;;5094444;28;20208;-69
2020/12/29 00:48:15;;;;;;;1.20;1.10;;;6.30;57.40;;;;;;5097644;28;20203;-67
2020/12/29 00:50:41;;;;;;;0.80;0.80;;;6.30;57.40;;;;;;5096491;28;20230;-68
2020/12/29 00:53:10;;;;;;;1.00;0.90;;;6.30;57.30;;;;;;5096135;28;21099;-66
2020/12/29 00:55:38;;;;;;;0.80;0.77;;;6.30;57.30;;;;;;5097360;28;20208;-66
2020/12/29 00:58:04;;;;;;;1.00;0.83;;;6.30;57.40;;;;;;5097944;28;20201;-66
2020/12/29 01:00:32;;;;;;;1.03;0.70;;;6.40;57.40;;;;;;5097183;28;20724;-67
2020/12/29 01:02:58;;;;;;;0.73;0.73;;;6.40;57.30;;;;;;5095803;28;20220;-67
2020/12/29 01:05:27;;;;;;;0.70;0.70;;;6.40;57.30;;;;;;5097295;28;20212;-67
2020/12/29 01:07:54;;;;;;;0.67;0.63;;;6.40;57.30;;;;;;5098942;28;20695;-66
2020/12/29 01:10:21;;;;;;;0.67;0.57;;;6.40;57.20;;;;;;5095611;28;20743;-66
2020/12/29 01:12:47;;;;;;;0.70;0.70;;;6.40;57.10;;;;;;5096765;28;20216;-65
2020/12/29 01:15:14;;;;;;;1.00;0.60;;;6.40;57.10;;;;;;5095949;28;20203;-67
2020/12/29 01:17:41;;;;;;;0.60;0.60;;;6.40;57.10;;;;;;5096538;28;20248;-67
2020/12/29 01:20:07;;;;;;;0.60;0.60;;;6.40;57.10;;;;;;5094011;28;20220;-66
2020/12/29 01:22:34;;;;;;;0.40;0.40;;;6.40;57.00;;;;;;5095553;28;20211;-67
2020/12/29 01:25:00;;;;;;;0.50;0.50;;;6.40;57.00;;;;;;5096164;28;20302;-66
2020/12/29 01:27:27;;;;;;;0.40;0.40;;;6.40;56.90;;;;;;5093917;28;20204;-67
2020/12/29 01:29:53;;;;;;;0.40;0.40;;;6.30;56.90;;;;;;5093930;28;20200;-64
2020/12/29 01:32:19;;;;;;;0.50;0.40;;;6.30;56.80;;;;;;5093669;28;20212;-65
2020/12/29 01:34:46;;;;;;;0.53;0.53;;;6.30;56.90;;;;;;5092456;28;20819;-65
2020/12/29 01:37:13;;;;;;;0.50;0.50;;;6.30;56.90;;;;;;5094394;28;21059;-67
2020/12/29 01:39:39;;;;;;;0.50;0.50;;;6.30;56.90;;;;;;5096687;28;20215;-66
2020/12/29 01:42:10;;;;;;;0.60;0.50;;;6.30;57.00;;;;;;5095903;28;20199;-66
2020/12/29 01:44:37;;;;;;;0.50;0.50;;;6.40;57.10;;;;;;5095087;28;20220;-66
2020/12/29 01:47:03;;;;;;;0.73;0.60;;;6.30;57.00;;;;;;5099067;28;20219;-67
2020/12/29 01:49:30;;;;;;;0.53;0.53;;;6.40;57.10;;;;;;5095610;28;20681;-66
2020/12/29 01:51:57;;;;;;;0.40;0.40;;;6.40;57.10;;;;;;5084093;28;20204;-66
2020/12/29 01:54:25;;;;;;;0.50;0.47;;;6.40;57.10;;;;;;5097706;28;20230;-66
2020/12/29 01:56:51;;;;;;;0.60;0.60;;;6.40;57.10;;;;;;5097486;28;20215;-65
2020/12/29 01:59:18;;;;;;;0.43;0.40;;;6.40;57.20;;;;;;5097065;28;20291;-67
2020/12/29 02:01:44;;;;;;;0.53;0.53;;;6.40;57.20;;;;;;5094991;28;20952;-65
2020/12/29 02:04:13;;;;;;;0.40;0.40;;;6.40;57.10;;;;;;5094782;28;20600;-65
2020/12/29 02:06:39;;;;;;;0.50;0.50;;;6.40;57.00;;;;;;5095216;28;20216;-67
2020/12/29 02:09:09;;;;;;;0.40;0.40;;;6.40;57.00;;;;;;5111584;22;20325;-64
2020/12/29 02:11:36;;;;;;;0.70;0.50;;;6.30;57.00;;;;;;5083359;28;20220;-64
2020/12/29 02:14:08;;;;;;;0.43;0.40;;;6.30;57.00;;;;;;5085395;28;20216;-65
2020/12/29 02:16:37;;;;;;;1.03;0.80;;;6.30;57.10;;;;;;5084012;28;20196;-64
2020/12/29 02:19:05;;;;;;;1.03;0.70;;;6.30;57.20;;;;;;5084248;28;20247;-64
2020/12/29 02:21:33;;;;;;;0.50;0.50;;;6.30;57.30;;;;;;5075190;28;20269;-64
2020/12/29 02:24:02;;;;;;;0.43;0.43;;;6.30;57.40;;;;;;5077956;28;20209;-64
2020/12/29 02:26:30;;;;;;;0.63;0.60;;;6.40;57.50;;;;;;5074428;28;20545;-63
2020/12/29 02:29:01;;;;;;;0.40;0.40;;;6.40;57.50;;;;;;5075007;28;20661;-61
2020/12/29 02:31:28;;;;;;;0.57;0.43;;;6.40;57.50;;;;;;5075203;28;20208;-63
2020/12/29 02:33:56;;;;;;;0.40;0.40;;;6.50;57.50;;;;;;5074992;28;20227;-62
2020/12/29 02:36:22;;;;;;;0.50;0.50;;;6.50;57.50;;;;;;5076180;28;20208;-62
2020/12/29 02:38:49;;;;;;;0.50;0.50;;;6.50;57.50;;;;;;5076424;28;20632;-64
2020/12/29 02:41:17;;;;;;;0.77;0.50;;;6.50;57.40;;;;;;5076666;28;20216;-60
2020/12/29 02:43:44;;;;;;;0.60;0.50;;;6.60;57.30;;;;;;5075293;28;20220;-62
2020/12/29 02:46:12;;;;;;;0.37;0.37;;;6.60;57.30;;;;;;5071010;28;20212;-64
2020/12/29 02:48:38;;;;;;;0.43;0.43;;;6.60;57.30;;;;;;5077325;28;20220;-65
2020/12/29 02:51:05;;;;;;;0.33;0.33;;;6.60;57.40;;;;;;5071349;28;20754;-63
2020/12/29 02:53:31;;;;;;;0.67;0.40;;;6.60;58.20;;;;;;5073144;28;20273;-63
2020/12/29 02:55:58;;;;;;;0.70;0.43;;;6.60;57.70;;;;;;5075408;28;20209;-62
2020/12/29 02:58:25;;;;;;;0.60;0.60;;;6.60;57.70;;;;;;5073812;28;20212;-63
2020/12/29 03:00:51;;;;;;;0.50;0.50;;;6.70;57.80;;;;;;5074916;28;20233;-63
2020/12/29 03:03:18;;;;;;;0.43;0.43;;;6.70;57.80;;;;;;5075369;28;20989;-64
2020/12/29 03:05:44;;;;;;;0.70;0.50;;;6.70;57.80;;;;;;5075134;28;20212;-64
2020/12/29 03:08:10;;;;;;;0.80;0.43;;;6.80;57.70;;;;;;5072891;28;20690;-61
2020/12/29 03:10:37;;;;;;;0.40;0.40;;;6.90;57.70;;;;;;5076051;28;20227;-63
2020/12/29 03:13:03;;;;;;;0.70;0.50;;;6.90;57.60;;;;;;5074736;28;20378;-62
2020/12/29 03:15:31;;;;;;;0.70;0.50;;;6.90;57.50;;;;;;5077600;28;20203;-64
2020/12/29 03:17:57;;;;;;;1.27;0.50;;;7.00;57.50;;;;;;5076296;28;20716;-64
2020/12/29 03:20:23;;;;;;;0.80;0.70;;;7.00;57.40;;;;;;5075378;28;20224;-65
2020/12/29 03:22:50;;;;;;;0.63;0.60;;;7.00;57.30;;;;;;5075148;28;20274;-62
2020/12/29 03:25:16;;;;;;;0.40;0.40;;;7.00;57.20;;;;;;5078183;28;20229;-63
2020/12/29 03:27:43;;;;;;;0.70;0.43;;;7.00;57.10;;;;;;5073789;28;21143;-63
2020/12/29 03:30:10;;;;;;;0.40;0.40;;;7.00;57.00;;;;;;5074696;28;20331;-64
2020/12/29 03:32:37;;;;;;;0.43;0.43;;;7.00;56.90;;;;;;5077413;28;20736;-63
2020/12/29 03:35:03;;;;;;;0.40;0.40;;;7.00;56.80;;;;;;5072254;28;20267;-63
2020/12/29 03:37:30;;;;;;;0.40;0.40;;;7.00;56.70;;;;;;5076720;28;20201;-63
2020/12/29 03:39:56;;;;;;;0.70;0.60;;;6.90;56.70;;;;;;5075678;28;20702;-63
2020/12/29 03:42:22;;;;;;;0.40;0.40;;;6.90;56.70;;;;;;5074373;28;20212;-63
2020/12/29 03:44:49;;;;;;;0.50;0.50;;;6.80;56.70;;;;;;5070778;28;20213;-59
2020/12/29 03:47:15;;;;;;;0.60;0.60;;;6.80;56.70;;;;;;5074587;28;20228;-63
2020/12/29 03:49:45;;;;;;;0.40;0.40;;;6.70;56.80;;;;;;5074493;28;20278;-62
2020/12/29 03:52:12;;;;;;;0.43;0.43;;;6.70;56.80;;;;;;5070062;28;20205;-63
2020/12/29 03:54:38;;;;;;;0.40;0.40;;;6.60;56.80;;;;;;5076939;28;20213;-63
2020/12/29 03:57:05;;;;;;;1.47;0.40;;;6.60;57.50;;;;;;5074039;28;20251;-63
2020/12/29 03:59:31;;;;;;;0.73;0.60;;;6.50;56.80;;;;;;5073648;28;20336;-63
2020/12/29 04:01:57;;;;;;;0.50;0.50;;;6.50;56.90;;;;;;5072486;28;20249;-61
2020/12/29 04:04:24;;;;;;;0.40;0.40;;;6.50;57.00;;;;;;5075838;28;20532;-63
2020/12/29 04:06:51;;;;;;;0.50;0.50;;;6.40;57.00;;;;;;5075851;28;20295;-63
2020/12/29 04:09:18;;;;;;;0.40;0.40;;;6.40;57.10;;;;;;5072125;28;20231;-63
2020/12/29 04:11:44;;;;;;;0.40;0.40;;;6.30;57.20;;;;;;5074126;28;20204;-63
2020/12/29 04:14:10;;;;;;;0.50;0.50;;;6.30;57.40;;;;;;5073707;28;20205;-63
2020/12/29 04:16:37;;;;;;;0.47;0.43;;;6.30;57.60;;;;;;5074206;28;20251;-60
2020/12/29 04:19:03;;;;;;;0.60;0.50;;;6.30;57.70;;;;;;5076259;28;20240;-61
2020/12/29 04:21:30;;;;;;;0.57;0.57;;;6.40;57.80;;;;;;5074913;28;20287;-64
2020/12/29 04:23:57;;;;;;;0.70;0.70;;;6.40;57.90;;;;;;5071263;28;20209;-65
2020/12/29 04:26:23;;;;;;;0.93;0.80;;;6.40;57.90;;;;;;5075282;28;20236;-64
2020/12/29 04:28:50;;;;;;;0.50;0.50;;;6.40;57.90;;;;;;5072490;28;20212;-63
2020/12/29 04:31:18;;;;;;;0.50;0.50;;;6.40;57.80;;;;;;5074465;28;20205;-62
2020/12/29 04:33:44;;;;;;;0.50;0.50;;;6.50;57.90;;;;;;5072382;28;20637;-64
2020/12/29 04:36:11;;;;;;;0.47;0.47;;;6.50;57.80;;;;;;5074951;28;20208;-67
2020/12/29 04:38:38;;;;;;;0.63;0.63;;;6.50;57.90;;;;;;5074280;28;20526;-63
2020/12/29 04:41:06;;;;;;;0.67;0.67;;;6.50;57.80;;;;;;5072167;28;20948;-63
2020/12/29 04:43:34;;;;;;;0.77;0.70;;;6.50;57.90;;;;;;5073412;28;20204;-64
2020/12/29 04:46:04;;;;;;;0.60;0.60;;;6.60;57.90;;;;;;5073335;28;20204;-63
2020/12/29 04:48:32;;;;;;;0.60;0.60;;;6.60;57.80;;;;;;5076303;28;20201;-64
2020/12/29 04:51:04;;;;;;;0.77;0.60;;;6.60;57.70;;;;;;5070611;28;20278;-61
2020/12/29 04:53:32;;;;;;;0.70;0.67;;;6.60;57.70;;;;;;5075261;28;20696;-63
2020/12/29 04:56:06;;;;;;;0.70;0.70;;;6.60;57.60;;;;;;5073497;28;20215;-63
2020/12/29 04:58:33;;;;;;;0.70;0.70;;;6.60;57.60;;;;;;5073958;28;20197;-61
2020/12/29 05:01:06;;;;;;;0.90;0.70;;;6.60;57.50;;;;;;5072680;28;20243;-64
2020/12/29 05:03:42;;;;;;;0.80;0.60;;;6.60;57.50;;;;;;5072383;28;20678;-65
2020/12/29 05:06:10;;;;;;;0.50;0.50;;;6.60;57.50;;;;;;5072314;28;20227;-64
2020/12/29 05:08:37;;;;;;;0.70;0.50;;;6.50;57.50;;;;;;5075330;28;20220;-64
2020/12/29 05:11:03;;;;;;;0.70;0.70;;;6.50;57.60;;;;;;5067440;28;21167;-66
2020/12/29 05:13:31;;;;;;;0.50;0.50;;;6.50;57.50;;;;;;5074376;28;20209;-63
2020/12/29 05:15:57;;;;;;;0.57;0.57;;;6.50;57.60;;;;;;5076992;28;20227;-64
2020/12/29 05:18:26;;;;;;;0.50;0.50;;;6.50;57.50;;;;;;5076728;28;20200;-64
2020/12/29 05:20:53;;;;;;;0.50;0.50;;;6.50;57.50;;;;;;5075670;28;20604;-63
2020/12/29 05:23:21;;;;;;;0.60;0.60;;;6.50;57.50;;;;;;5075434;28;20213;-63
2020/12/29 05:25:48;;;;;;;0.50;0.50;;;6.50;57.60;;;;;;5078780;28;20231;-64
2020/12/29 05:28:15;;;;;;;0.93;0.50;;;6.50;57.60;;;;;;5076242;28;20669;-63
2020/12/29 05:30:42;;;;;;;0.60;0.60;;;6.50;57.50;;;;;;5077279;28;20233;-63
2020/12/29 05:33:12;;;;;;;0.80;0.63;;;6.50;57.50;;;;;;5078268;28;20204;-62
2020/12/29 05:35:40;;;;;;;0.63;0.50;;;6.50;57.50;;;;;;5078580;28;20283;-64
2020/12/29 05:38:07;;;;;;;0.80;0.80;;;6.50;57.50;;;;;;5080375;28;20251;-62
2020/12/29 05:40:35;;;;;;;0.70;0.70;;;6.50;57.50;;;;;;5076990;28;20298;-63
2020/12/29 05:43:03;;;;;;;0.50;0.50;;;6.40;57.50;;;;;;5075792;28;20200;-62
2020/12/29 05:45:31;;;;;;;0.77;0.70;;;6.40;57.40;;;;;;5074189;28;20205;-63
2020/12/29 05:48:01;;;;;;;0.77;0.70;;;6.40;57.50;;;;;;5074897;28;20209;-63
2020/12/29 05:50:30;;;;;;;1.03;0.70;;;6.40;57.40;;;;;;5073701;28;20290;-63
2020/12/29 05:53:00;;;;;;;0.53;0.53;;;6.40;57.30;;;;;;5072131;28;22333;-63
2020/12/29 05:55:27;;;;;;;0.57;0.50;;;6.40;57.30;;;;;;5076711;28;20213;-63
2020/12/29 05:58:06;;;;;;;0.70;0.70;;;6.40;57.10;;;;;;5077493;28;20337;-64
2020/12/29 06:00:33;;;;;;;0.50;0.50;;;6.30;57.00;;;;;;5076468;28;20221;-63
2020/12/29 06:03:03;;;;;;;0.60;0.60;;;6.30;57.00;;;;;;5077097;28;20321;-64
2020/12/29 06:05:32;;;;;;;0.50;0.50;;;6.30;57.00;;;;;;5075525;28;20201;-63
2020/12/29 06:08:01;;;;;;;0.50;0.50;;;6.20;57.00;;;;;;5076355;28;20212;-63
2020/12/29 06:10:32;;;;;;;0.60;0.60;;;6.20;57.00;;;;;;5072883;28;20242;-64
2020/12/29 06:13:00;;;;;;;0.50;0.50;;;6.20;57.10;;;;;;5075100;28;20208;-64
2020/12/29 06:15:30;;;;;;;0.60;0.60;;;6.10;57.10;;;;;;5077893;28;20213;-64
2020/12/29 06:18:00;;;;;;;0.60;0.60;;;6.10;57.10;;;;;;5077611;28;20235;-64
2020/12/29 06:20:39;;;;;;;0.40;0.40;;;6.10;57.10;;;;;;5076866;28;20914;-62
2020/12/29 06:23:07;;;;;;;0.50;0.50;;;6.10;57.10;;;;;;5076332;28;20205;-63
2020/12/29 06:25:37;;;;;;;0.50;0.50;;;6.10;57.10;;;;;;5075952;28;20233;-61
2020/12/29 06:28:06;;;;;;;0.67;0.60;;;6.10;57.10;;;;;;5076012;28;20204;-63
2020/12/29 06:30:34;;;;;;;0.30;0.30;;;6.10;57.10;;;;;;5078259;28;20235;-63
2020/12/29 06:33:04;;;;;;;0.50;0.50;;;6.10;57.10;;;;;;5076346;28;20209;-64
2020/12/29 06:35:30;;;;;;;0.50;0.50;;;6.10;57.10;;;;;;5075795;28;20633;-64
2020/12/29 06:38:12;;;;;;;0.80;0.50;;;6.10;57.00;;;;;;5074449;28;20735;-63
2020/12/29 06:40:41;;;;;;;0.47;0.47;;;6.10;56.90;;;;;;5075276;28;20221;-61
2020/12/29 06:43:09;;;;;;;0.70;0.70;;;6.10;56.90;;;;;;5077104;28;20211;-62
2020/12/29 06:45:37;;;;;;;0.57;0.57;;;6.10;56.90;;;;;;5075496;28;20570;-64
2020/12/29 06:48:17;;;;;;;0.40;0.40;;;6.10;56.80;;;;;;5076646;28;20217;-62
2020/12/29 06:50:44;;;;;;;0.80;0.60;;;6.10;56.70;;;;;;5076301;28;20578;-62
2020/12/29 06:53:17;;;;;;;0.87;0.80;;;6.10;56.70;;;;;;5077402;28;20205;-63
2020/12/29 06:55:49;;;;;;;0.50;0.50;;;6.00;56.60;;;;;;5073915;28;20204;-63
2020/12/29 06:58:30;;;;;;;0.60;0.60;;;6.00;56.60;;;;;;5074383;28;20209;-63
2020/12/29 07:01:20;;;;;;;0.70;0.70;;;6.00;56.60;;;;;;5071228;28;20231;-63
2020/12/29 07:03:48;;;;;;;1.10;1.00;;;5.90;56.60;;;;;;5076273;28;20208;-62
2020/12/29 07:06:14;;;;;;;0.90;0.90;;;6.00;56.70;;;;;;5076736;28;20219;-63
2020/12/29 07:08:42;;;;;;;0.70;0.70;;;5.90;56.60;;;;;;5078060;28;20204;-63
2020/12/29 07:11:19;;;;;;;0.97;0.80;;;5.90;56.70;;;;;;5075503;28;20233;-63
2020/12/29 07:13:51;;;;;;;0.87;0.80;;;5.90;56.70;;;;;;5075447;28;20674;-63
2020/12/29 07:16:25;;;;;;;0.70;0.70;;;5.80;56.70;;;;;;5074410;28;20213;-62
2020/12/29 07:18:53;;;;;;;0.83;0.83;;;5.80;57.40;;;;;;5077764;28;20226;-64
2020/12/29 07:21:25;;;;;;;1.00;0.70;;;5.80;56.80;;;;;;5075599;28;20744;-65
2020/12/29 07:23:54;;;;;;;0.70;0.60;;;5.80;56.80;;;;;;5077954;28;20201;-64
2020/12/29 07:26:22;;;;;;;0.60;0.60;;;5.80;56.80;;;;;;5075542;28;20263;-63
2020/12/29 07:28:54;;;;;;;1.33;0.60;;;5.80;56.80;;;;;;5076517;28;20216;-64
2020/12/29 07:31:21;;;;;;;0.80;0.80;;;5.80;56.80;;;;;;5073978;28;20212;-63
2020/12/29 07:33:53;;;;;;;0.73;0.70;;;5.80;56.80;;;;;;5073792;28;20251;-64
2020/12/29 07:36:21;;;;;;;1.00;0.80;;;5.80;56.70;;;;;;5077778;28;20286;-64
2020/12/29 07:38:50;;;;;;;0.70;0.70;;;5.80;56.80;;;;;;5077722;28;20212;-63
2020/12/29 07:41:19;;;;;;;0.80;0.77;;;5.90;56.70;;;;;;5076251;28;20750;-63
2020/12/29 07:43:47;;;;;;;0.77;0.77;;;5.90;56.70;;;;;;5075626;28;20684;-63
2020/12/29 07:46:14;;;;;;;0.80;0.67;;;5.90;56.60;;;;;;5076080;28;20209;-65
2020/12/29 07:48:41;;;;;;;0.70;0.70;;;5.90;56.60;;;;;;5071677;28;20963;-61
2020/12/29 07:51:08;;;;;;;0.87;0.70;;;5.90;56.50;;;;;;5076814;28;20351;-61
2020/12/29 07:53:34;;;;;;;1.17;0.70;;;6.00;56.50;;;;;;5078429;28;20220;-64
2020/12/29 07:56:00;;;;;;;0.60;0.60;;;6.00;56.50;;;;;;5074010;28;20205;-62
2020/12/29 07:58:28;;;;;;;0.60;0.60;;;6.00;56.30;;;;;;5075129;28;20209;-62
2020/12/29 08:00:54;;;;;;;1.37;0.60;;;6.00;56.30;;;;;;5070793;28;20831;-63
2020/12/29 08:03:21;;;;;;;0.67;0.67;;;6.10;56.20;;;;;;5073771;28;20224;-63
2020/12/29 08:05:47;;;;;;;0.73;0.73;;;6.10;56.10;;;;;;5072884;28;20212;-63
2020/12/29 08:08:15;;;;;;;0.83;0.80;;;6.20;55.80;;;;;;5075493;28;20674;-61
2020/12/29 08:10:44;;;;;;;1.20;0.90;;;6.20;55.80;;;;;;5072358;28;20722;-62
2020/12/29 08:13:12;;;;;;;0.60;0.60;;;6.30;55.70;;;;;;5075880;28;20327;-62
2020/12/29 08:15:41;;;;;;;0.63;0.60;;;6.40;55.60;;;;;;5073232;28;20591;-61
2020/12/29 08:18:10;;;;;;;0.50;0.50;;;6.50;55.40;;;;;;5073324;28;20204;-63
2020/12/29 08:20:45;;;;;;;0.40;0.40;;;6.50;55.60;;;;;;5071570;28;20530;-63
2020/12/29 08:23:12;;;;;;;1.30;0.60;;;6.60;55.10;;;;;;5073220;28;20257;-64
2020/12/29 08:25:39;;;;;;;0.50;0.50;;;6.80;55.60;;;;;;5077958;28;20231;-61
2020/12/29 08:28:07;;;;;;;0.50;0.50;;;7.00;55.40;;;;;;5076420;28;20265;-60
2020/12/29 08:30:39;;;;;;;0.50;0.33;;;7.10;55.10;;;;;;5074841;28;20701;-63
2020/12/29 08:33:07;;;;;;;0.60;0.50;;;7.40;55.40;;;;;;5072224;28;20235;-61
2020/12/29 08:35:42;;;;;;;0.70;0.50;;;7.60;54.80;;;;;;5073491;28;20208;-61
2020/12/29 08:38:45;;;;;;;0.40;0.40;;;7.80;55.80;;;;;;5076983;28;20200;-62
2020/12/29 08:41:21;;;;;;;0.57;0.40;;;8.00;53.90;;;;;;5076447;28;20278;-62
2020/12/29 08:43:50;;;;;;;1.50;0.50;;;8.30;53.80;;;;;;5076376;28;20219;-62
2020/12/29 08:46:19;;;;;;;0.53;0.50;;;8.50;53.90;;;;;;5076680;28;20238;-63
2020/12/29 08:48:53;;;;;;;0.57;0.57;;;8.70;53.50;;;;;;5075530;28;20562;-63
2020/12/29 08:51:25;;;;;;;0.60;0.60;;;8.80;53.20;;;;;;5073386;28;20732;-64
2020/12/29 08:53:52;;;;;;;0.73;0.53;;;8.90;52.50;;;;;;5075516;28;20207;-64
2020/12/29 08:56:23;;;;;;;0.30;0.30;;;9.00;52.70;;;;;;5076737;28;20215;-64
2020/12/29 08:58:49;;;;;;;0.57;0.57;;;9.10;52.60;;;;;;5074161;28;20205;-62
2020/12/29 09:01:32;;;;;;;0.97;0.57;;;9.20;52.60;;;;;;5071391;28;20216;-65
2020/12/29 09:04:27;;;;;;;0.70;0.47;;;9.20;51.70;;;;;;5087161;22;21328;-67
2020/12/29 09:07:06;;;;;;;0.40;0.40;;;9.20;52.00;;;;;;5073640;28;20511;-66
2020/12/29 09:09:35;;;;;;;0.60;0.47;;;9.20;52.10;;;;;;5075399;28;20203;-66
2020/12/29 09:12:09;;;;;;;0.70;0.50;;;9.30;52.30;;;;;;5073936;28;20707;-66
2020/12/29 09:14:36;;;;;;;0.73;0.50;;;9.30;51.80;;;;;;5069470;28;20251;-66
2020/12/29 09:17:06;;;;;;;0.50;0.50;;;9.30;52.00;;;;;;5065445;28;20216;-67
2020/12/29 09:19:33;;;;;;;0.40;0.40;;;9.30;52.00;;;;;;5064048;28;20220;-66
2020/12/29 09:22:08;;;;;;;0.37;0.37;;;9.30;52.10;;;;;;5063032;28;20212;-67
2020/12/29 09:24:36;;;;;;;0.30;0.30;;;9.30;51.70;;;;;;5066833;28;20236;-66
2020/12/29 09:27:04;;;;;;;0.40;0.40;;;9.40;52.20;;;;;;5064754;28;20255;-66
2020/12/29 09:29:33;;;;;;;0.50;0.50;;;9.40;52.00;;;;;;5067057;28;20205;-66
2020/12/29 09:32:01;;;;;;;0.60;0.60;;;9.50;51.90;;;;;;5064957;28;20208;-67
2020/12/29 09:34:28;;;;;;;0.60;0.60;;;9.60;53.30;;;;;;5064835;28;20221;-66
2020/12/29 09:36:54;;;;;;;0.50;0.50;;;9.90;53.80;;;;;;5061230;28;20714;-67
2020/12/29 09:39:21;;;;;;;1.00;0.57;;;10.40;54.30;;;;;;5061103;28;21059;-66
2020/12/29 09:41:55;;;;;;;0.40;0.40;;;11.00;53.10;;;;;;5059311;28;20303;-66
2020/12/29 09:44:22;;;;;;;0.70;0.50;;;11.70;52.30;;;;;;5062416;28;20232;-66
2020/12/29 09:46:48;;;;;;;0.67;0.57;;;12.30;52.60;;;;;;5060942;28;20216;-69
2020/12/29 09:49:15;;;;;;;0.50;0.50;;;13.00;53.10;;;;;;5065808;28;20296;-65
2020/12/29 09:51:42;;;;;;;0.80;0.70;;;13.80;50.60;;;;;;5060849;28;20204;-67
2020/12/29 09:54:08;;;;;;;0.50;0.50;;;14.60;50.00;;;;;;5060939;28;20233;-67
2020/12/29 09:56:35;;;;;;;0.47;0.47;;;15.40;50.00;;;;;;5059689;28;20258;-67
2020/12/29 09:59:01;;;;;;;0.80;0.40;;;16.00;50.00;;;;;;5062515;28;20266;-66
2020/12/29 10:01:27;;;;;;;0.97;0.37;;;16.70;49.30;;;;;;5066847;28;20228;-68
2020/12/29 10:03:54;;;;;;;0.50;0.50;;;17.30;49.50;;;;;;5066419;28;20233;-67
2020/12/29 10:06:20;;;;;;;0.40;0.40;;;17.90;48.80;;;;;;5066053;28;20213;-67
2020/12/29 10:08:47;;;;;;;0.50;0.50;;;18.50;48.60;;;;;;5067237;28;20212;-66
2020/12/29 10:11:14;;;;;;;0.70;0.40;;;19.00;48.70;;;;;;5062279;28;20239;-67
2020/12/29 10:13:40;;;;;;;0.40;0.40;;;19.70;48.90;;;;;;5065876;28;20232;-67
2020/12/29 10:16:07;;;;;;;0.40;0.40;;;20.30;48.40;;;;;;5063149;28;20208;-68
2020/12/29 10:18:33;;;;;;;0.90;0.50;;;20.80;46.70;;;;;;5062293;28;20656;-67
2020/12/29 10:20:59;;;;;;;0.33;0.33;;;21.30;46.00;;;;;;5061858;28;20229;-68
2020/12/29 10:23:26;;;;;;;0.33;0.33;;;21.60;45.60;;;;;;5065455;28;21697;-67
2020/12/29 10:25:53;;;;;;;0.30;0.30;;;21.90;45.40;;;;;;5065902;28;20213;-68
2020/12/29 10:28:20;;;;;;;0.40;0.40;;;22.20;44.80;;;;;;5067969;28;20612;-67
2020/12/29 10:30:49;;;;;;;0.43;0.40;;;22.50;44.90;;;;;;5066048;28;20205;-66
2020/12/29 10:33:16;;;;;;;0.67;0.47;;;22.80;44.00;;;;;;5068528;28;20229;-64
2020/12/29 10:35:42;;;;;;;0.30;0.30;;;23.10;43.90;;;;;;5066627;28;20243;-64
2020/12/29 10:38:09;;;;;;;0.87;0.50;;;23.30;43.50;;;;;;5066287;28;20650;-66
2020/12/29 10:40:35;;;;;;;0.40;0.40;;;23.40;42.70;;;;;;5063877;28;20229;-66
2020/12/29 10:43:03;;;;;;;0.37;0.37;;;23.40;42.50;;;;;;5062024;28;20208;-67
2020/12/29 10:45:29;;;;;;;0.40;0.40;;;23.30;42.20;;;;;;5066252;28;20208;-66
2020/12/29 10:47:55;;;;;;;1.17;0.50;;;23.30;41.70;;;;;;5066305;28;20236;-69
2020/12/29 10:50:22;;;;;;;0.50;0.40;;;23.20;41.50;;;;;;5067698;28;20212;-68
2020/12/29 10:52:48;;;;;;;0.40;0.40;;;23.10;41.40;;;;;;5067665;28;20299;-65
2020/12/29 10:55:15;;;;;;;0.50;0.47;;;23.00;40.70;;;;;;5065315;28;20655;-67
2020/12/29 10:57:41;;;;;;;0.40;0.40;;;22.80;39.40;;;;;;5067084;28;20270;-66
2020/12/29 11:00:08;;;;;;;0.40;0.40;;;22.60;39.50;;;;;;5065308;28;20228;-65
2020/12/29 11:02:35;;;;;;;0.33;0.33;;;22.30;39.10;;;;;;5066848;28;20221;-66
2020/12/29 11:05:01;;;;;;;0.53;0.40;;;21.90;38.60;;;;;;5065978;28;20612;-66
2020/12/29 11:07:27;;;;;;;1.83;0.50;;;21.40;39.40;;;;;;5065370;28;20255;-69
2020/12/29 11:09:54;;;;;;;0.40;0.40;;;21.00;39.30;;;;;;5063818;28;20208;-65
2020/12/29 11:12:20;;;;;;;0.70;0.40;;;20.50;40.10;;;;;;5065313;28;20212;-63
2020/12/29 11:14:46;;;;;;;0.40;0.40;;;20.20;40.80;;;;;;5068238;28;20225;-63
2020/12/29 11:17:14;;;;;;;0.73;0.43;;;19.90;41.00;;;;;;5066842;28;20310;-62
2020/12/29 11:19:40;;;;;;;0.50;0.40;;;19.80;41.80;;;;;;5066428;28;20212;-62
2020/12/29 11:22:06;;;;;;;0.43;0.43;;;19.80;42.40;;;;;;5065537;28;20501;-63
2020/12/29 11:24:33;;;;;;;0.60;0.40;;;19.90;42.50;;;;;;5067111;28;20224;-63
2020/12/29 11:26:59;;;;;;;0.80;0.50;;;19.90;42.10;;;;;;5067319;28;20279;-63
2020/12/29 11:29:26;;;;;;;0.20;0.20;;;19.80;41.50;;;;;;5065792;28;20232;-61
2020/12/29 11:31:52;;;;;;;1.10;0.60;;;19.70;41.40;;;;;;5064980;28;20201;-62
2020/12/29 11:34:19;;;;;;;0.80;0.50;;;19.40;41.10;;;;;;5068032;28;20232;-62
2020/12/29 11:36:45;;;;;;;0.40;0.40;;;19.10;40.40;;;;;;5066119;28;20223;-62
2020/12/29 11:39:12;;;;;;;1.03;0.60;;;18.70;40.80;;;;;;5063418;28;20207;-63
2020/12/29 11:41:38;;;;;;;0.57;0.50;;;18.30;41.10;;;;;;5063331;28;20217;-63
2020/12/29 11:44:04;;;;;;;0.50;0.50;;;17.90;41.10;;;;;;5065170;28;20236;-63
2020/12/29 11:46:32;;;;;;;0.43;0.40;;;17.50;42.10;;;;;;5064951;28;20697;-63
2020/12/29 11:48:59;;;;;;;0.53;0.53;;;17.10;41.60;;;;;;5065520;28;20201;-63
2020/12/29 11:51:26;;;;;;;0.90;0.67;;;16.70;41.30;;;;;;5065097;28;20209;-62
2020/12/29 11:53:52;;;;;;;0.97;0.60;;;16.40;41.10;;;;;;5069648;28;20415;-67
2020/12/29 11:56:19;;;;;;;0.70;0.53;;;16.00;41.70;;;;;;5066589;28;20584;-65
2020/12/29 11:58:45;;;;;;;0.70;0.70;;;15.70;42.20;;;;;;5065948;28;20217;-66
2020/12/29 12:01:12;;;;;;;0.70;0.70;;;15.40;42.50;;;;;;5063021;28;20879;-65
2020/12/29 12:03:39;;;;;;;1.10;0.70;;;15.20;42.90;;;;;;5067941;28;20327;-65
2020/12/29 12:06:05;;;;;;;1.00;0.80;;;15.00;42.90;;;;;;5066413;28;20205;-65
2020/12/29 12:08:32;;;;;;;1.53;0.80;;;14.80;43.30;;;;;;5063992;28;20205;-65
2020/12/29 12:10:59;;;;;;;0.90;0.80;;;14.70;43.60;;;;;;5064500;28;20193;-65
2020/12/29 12:13:25;;;;;;;0.93;0.73;;;14.60;43.80;;;;;;5064967;28;20317;-66
2020/12/29 12:15:51;;;;;;;1.00;0.77;;;14.60;44.00;;;;;;5064570;28;20289;-66
2020/12/29 12:18:19;;;;;;;0.60;0.60;;;14.50;44.00;;;;;;5063985;28;20217;-65
2020/12/29 12:20:49;;;;;;;0.90;0.50;;;14.50;44.00;;;;;;5064259;28;20357;-67
2020/12/29 12:23:15;;;;;;;1.07;0.80;;;14.40;43.90;;;;;;5062330;28;20302;-65
2020/12/29 12:25:42;;;;;;;0.50;0.50;;;14.40;43.90;;;;;;5063134;28;20216;-65
2020/12/29 12:28:09;;;;;;;0.80;0.70;;;14.30;43.90;;;;;;5065578;28;20235;-66
2020/12/29 12:30:36;;;;;;;0.93;0.90;;;14.20;43.70;;;;;;5062148;28;20208;-66
2020/12/29 12:33:02;;;;;;;0.70;0.70;;;14.20;44.00;;;;;;5063812;28;20690;-65
2020/12/29 12:35:28;;;;;;;1.70;0.60;;;14.10;44.20;;;;;;5065804;28;20307;-66
2020/12/29 12:37:55;;;;;;;0.60;0.60;;;14.00;44.20;;;;;;5066383;28;20209;-65
2020/12/29 12:40:21;;;;;;;0.80;0.80;;;14.00;44.00;;;;;;5063815;28;20706;-65
2020/12/29 12:42:48;;;;;;;0.97;0.67;;;13.90;44.20;;;;;;5063256;28;20200;-66
2020/12/29 12:45:15;;;;;;;2.93;0.50;;;13.90;44.20;;;;;;5063975;28;20202;-64
2020/12/29 12:47:41;;;;;;;1.07;0.63;;;13.80;44.20;;;;;;5064526;28;20224;-65
2020/12/29 12:50:07;;;;;;;0.80;0.50;;;13.80;44.40;;;;;;5061693;28;20247;-67
2020/12/29 12:52:34;;;;;;;1.03;0.50;;;13.70;44.40;;;;;;5063041;28;20208;-65
2020/12/29 12:55:00;;;;;;;0.87;0.63;;;13.70;44.50;;;;;;5062292;28;20598;-65
2020/12/29 12:57:27;;;;;;;1.23;0.70;;;13.70;45.20;;;;;;5059612;28;20874;-65
2020/12/29 12:59:54;;;;;;;1.87;0.67;;;13.60;44.60;;;;;;5060720;28;20212;-65